createdAt,value
2023-01-08T00:00:51.272Z,99446.66
2023-01-08T00:03:19.386Z,99443.56
2023-01-08T00:05:47.207Z,99442.13
2023-01-08T00:08:14.883Z,99439.09
2023-01-08T00:10:42.695Z,99437.09
2023-01-08T00:13:11.697Z,99435.06
2023-01-08T00:15:39.412Z,99443.81
2023-01-08T00:18:07.063Z,99448.91
2023-01-08T00:20:34.730Z,99449.72
2023-01-08T00:23:02.419Z,99452.00
2023-01-08T00:25:30.075Z,99453.63
2023-01-08T00:27:57.759Z,99455.72
2023-01-08T00:30:26.824Z,99438.44
2023-01-08T00:32:54.548Z,99442.72
2023-01-08T00:35:22.269Z,99439.72
2023-01-08T00:37:50.339Z,99439.72
2023-01-08T00:40:20.542Z,99434.25
2023-01-08T00:42:48.568Z,99437.06
2023-01-08T00:45:16.516Z,99438.91
2023-01-08T00:47:45.582Z,99425.69
2023-01-08T00:50:13.385Z,99430.78
2023-01-08T00:52:41.071Z,99432.59
2023-01-08T00:55:09.357Z,99429.78
2023-01-08T00:57:38.304Z,99429.56
2023-01-08T01:00:09.187Z,99423.94
2023-01-08T01:02:37.147Z,99423.75
2023-01-08T01:05:07.637Z,99417.03
2023-01-08T01:07:35.556Z,99410.38
2023-01-08T01:10:03.242Z,99405.09
2023-01-08T01:12:30.982Z,99411.19
2023-01-08T01:14:58.715Z,99408.16
2023-01-08T01:17:26.629Z,99407.78
2023-01-08T01:19:54.273Z,99411.25
2023-01-08T01:22:23.305Z,99406.56
2023-01-08T01:24:51.066Z,99403.72
2023-01-08T01:27:18.738Z,99415.94
2023-01-08T01:29:46.462Z,99407.00
2023-01-08T01:32:14.147Z,99421.69
2023-01-08T01:34:42.012Z,99408.81
2023-01-08T01:37:11.580Z,99418.22
2023-01-08T01:39:40.908Z,99416.56
2023-01-08T01:42:30.797Z,99408.44
2023-01-08T01:44:58.521Z,99399.69
2023-01-08T01:47:29.412Z,99410.28
2023-01-08T01:50:02.494Z,99399.06
2023-01-08T01:52:34.133Z,99403.34
2023-01-08T01:55:05.455Z,99400.06
2023-01-08T01:57:34.701Z,99407.00
2023-01-08T02:00:05.525Z,99396.41
2023-01-08T02:02:39.763Z,99396.59
2023-01-08T02:05:08.492Z,99400.06
2023-01-08T02:07:41.679Z,99401.06
2023-01-08T02:10:13.276Z,99390.69
2023-01-08T02:12:45.729Z,99399.66
2023-01-08T02:15:19.516Z,99399.03
2023-01-08T02:17:54.779Z,99394.72
2023-01-08T02:20:27.502Z,99408.97
2023-01-08T02:23:12.620Z,99405.50
2023-01-08T02:26:19.290Z,99400.84
2023-01-08T02:28:53.787Z,99396.38
2023-01-08T02:31:24.058Z,99388.81
2023-01-08T02:33:51.911Z,99392.28
2023-01-08T02:36:35.402Z,99375.41
2023-01-08T02:39:11.990Z,99379.69
2023-01-08T02:41:45.360Z,99385.16
2023-01-08T02:44:22.695Z,99378.03
2023-01-08T02:46:52.839Z,99379.88
2023-01-08T02:49:22.766Z,99378.22
2023-01-08T02:51:53.696Z,99375.59
2023-01-08T02:54:25.130Z,99372.94
2023-01-08T02:57:00.500Z,99365.81
2023-01-08T02:59:32.501Z,99364.00
2023-01-08T03:02:01.872Z,99359.72
2023-01-08T03:04:36.307Z,99362.75
2023-01-08T03:07:04.389Z,99360.94
2023-01-08T03:09:32.521Z,99353.00
2023-01-08T03:12:03.361Z,99353.00
2023-01-08T03:14:38.743Z,99350.72
2023-01-08T03:17:10.689Z,99350.72
2023-01-08T03:19:42.199Z,99342.34
2023-01-08T03:22:12.988Z,99341.75
2023-01-08T03:24:43.159Z,99342.94
2023-01-08T03:27:15.625Z,99342.13
2023-01-08T03:29:45.930Z,99335.34
2023-01-08T03:32:17.309Z,99330.47
2023-01-08T03:34:47.118Z,99340.22
2023-01-08T03:37:17.287Z,99333.28
2023-01-08T03:39:48.708Z,99332.47
2023-01-08T03:42:19.022Z,99334.94
2023-01-08T03:44:48.428Z,99323.53
2023-01-08T03:47:16.382Z,99326.81
2023-01-08T03:49:45.858Z,99319.88
2023-01-08T03:52:22.978Z,99321.72
2023-01-08T03:54:50.731Z,99314.41
2023-01-08T03:57:18.509Z,99317.06
2023-01-08T03:59:46.389Z,99307.91
2023-01-08T04:02:15.866Z,99302.59
2023-01-08T04:04:44.166Z,99308.13
2023-01-08T04:07:12.841Z,99291.44
2023-01-08T04:09:40.581Z,99296.72
2023-01-08T04:12:08.678Z,99300.19
2023-01-08T04:14:36.416Z,99289.78
2023-01-08T04:17:04.163Z,99284.69
2023-01-08T04:19:33.194Z,99280.41
2023-01-08T04:22:00.827Z,99278.94
2023-01-08T04:24:28.577Z,99288.72
2023-01-08T04:26:56.370Z,99283.00
2023-01-08T04:29:24.038Z,99284.22
2023-01-08T04:31:51.752Z,99288.91
2023-01-08T04:34:19.472Z,99284.63
2023-01-08T04:36:48.647Z,99276.25
2023-01-08T04:39:16.452Z,99279.88
2023-01-08T04:41:44.123Z,99285.41
2023-01-08T04:44:11.998Z,99280.28
2023-01-08T04:46:39.695Z,99283.13
2023-01-08T04:49:07.558Z,99274.38
2023-01-08T04:51:35.279Z,99272.72
2023-01-08T04:54:04.519Z,99270.91
2023-01-08T04:56:32.395Z,99255.03
2023-01-08T04:59:00.342Z,99265.63
2023-01-08T05:01:29.003Z,99258.50
2023-01-08T05:03:58.257Z,99259.31
2023-01-08T05:06:26.994Z,99256.88
2023-01-08T05:08:54.962Z,99250.38
2023-01-08T05:11:24.116Z,99249.56
2023-01-08T05:13:53.204Z,99244.28
2023-01-08T05:16:20.975Z,99243.28
2023-01-08T05:18:48.898Z,99232.69
2023-01-08T05:21:17.575Z,99238.81
2023-01-08T05:23:47.612Z,99248.16
2023-01-08T05:26:16.015Z,99245.72
2023-01-08T05:28:45.247Z,99243.09
2023-01-08T05:31:13.020Z,99241.22
2023-01-08T05:33:41.015Z,99233.31
2023-01-08T05:36:10.442Z,99235.16
2023-01-08T05:38:38.661Z,99235.94
2023-01-08T05:41:07.481Z,99242.06
2023-01-08T05:43:35.611Z,99242.88
2023-01-08T05:46:05.910Z,99244.69
2023-01-08T05:48:35.241Z,99237.41
2023-01-08T05:51:03.592Z,99234.56
2023-01-08T05:53:32.899Z,99225.63
2023-01-08T05:56:01.777Z,99236.19
2023-01-08T05:58:29.498Z,99233.75
2023-01-08T06:01:04.474Z,99235.56
2023-01-08T06:03:32.158Z,99232.94
2023-01-08T06:06:00.849Z,99233.13
2023-01-08T06:08:29.367Z,99225.38
2023-01-08T06:11:00.289Z,99230.88
2023-01-08T06:13:28.525Z,99246.75
2023-01-08T06:15:56.456Z,99234.72
2023-01-08T06:18:25.494Z,99233.06
2023-01-08T06:20:53.164Z,99229.63
2023-01-08T06:23:20.841Z,99239.38
2023-01-08T06:25:53.410Z,99233.47
2023-01-08T06:28:21.184Z,99235.31
2023-01-08T06:30:49.034Z,99223.69
2023-01-08T06:33:18.661Z,99229.59
2023-01-08T06:35:48.659Z,99230.41
2023-01-08T06:38:19.043Z,99229.41
2023-01-08T06:40:46.937Z,99223.47
2023-01-08T06:43:14.740Z,99221.84
2023-01-08T06:45:42.567Z,99227.94
2023-01-08T06:48:10.240Z,99228.94
2023-01-08T06:50:37.938Z,99224.25
2023-01-08T06:53:06.949Z,99226.09
2023-01-08T06:55:34.645Z,99226.44
2023-01-08T06:58:02.348Z,99228.69
2023-01-08T07:00:30.114Z,99220.72
2023-01-08T07:02:57.906Z,99220.50
2023-01-08T07:05:25.713Z,99217.59
2023-01-08T07:07:53.561Z,99219.00
2023-01-08T07:10:22.725Z,99226.28
2023-01-08T07:12:50.598Z,99224.00
2023-01-08T07:15:18.490Z,99226.88
2023-01-08T07:17:46.159Z,99224.41
2023-01-08T07:20:13.830Z,99230.88
2023-01-08T07:22:41.614Z,99228.88
2023-01-08T07:25:10.076Z,99229.88
2023-01-08T07:27:39.215Z,99232.34
2023-01-08T07:30:15.147Z,99226.06
2023-01-08T07:32:48.891Z,99235.63
2023-01-08T07:35:16.757Z,99237.66
2023-01-08T07:37:44.559Z,99236.66
2023-01-08T07:40:13.296Z,99226.09
2023-01-08T07:42:42.332Z,99242.75
2023-01-08T07:45:10.595Z,99235.22
2023-01-08T07:47:38.263Z,99242.09
2023-01-08T07:50:07.088Z,99240.22
2023-01-08T07:52:34.782Z,99242.41
2023-01-08T07:55:02.576Z,99239.34
2023-01-08T07:57:30.377Z,99236.69
2023-01-08T07:59:59.412Z,99242.81
2023-01-08T08:02:27.219Z,99233.25
2023-01-08T08:04:55.043Z,99230.59
2023-01-08T08:07:22.681Z,99238.53
2023-01-08T08:09:50.375Z,99234.66
2023-01-08T08:12:18.128Z,99232.84
2023-01-08T08:14:46.037Z,99228.78
2023-01-08T08:17:15.083Z,99225.69
2023-01-08T08:19:44.112Z,99217.53
2023-01-08T08:22:11.798Z,99224.44
2023-01-08T08:24:39.583Z,99230.50
2023-01-08T08:27:07.618Z,99213.19
2023-01-08T08:29:35.364Z,99211.75
2023-01-08T08:32:03.046Z,99216.00
2023-01-08T08:34:32.134Z,99215.00
2023-01-08T08:36:59.887Z,99217.28
2023-01-08T08:39:27.567Z,99215.88
2023-01-08T08:41:55.259Z,99213.66
2023-01-08T08:44:23.059Z,99210.47
2023-01-08T08:46:50.776Z,99216.19
2023-01-08T08:49:18.615Z,99220.47
2023-01-08T08:51:47.681Z,99219.09
2023-01-08T08:54:15.353Z,99219.19
2023-01-08T08:56:43.031Z,99223.50
2023-01-08T08:59:13.081Z,99227.41
2023-01-08T09:01:40.930Z,99215.94
2023-01-08T09:04:08.654Z,99224.38
2023-01-08T09:06:36.339Z,99219.34
2023-01-08T09:09:05.605Z,99218.97
2023-01-08T09:11:33.609Z,99240.81
2023-01-08T09:14:01.363Z,99233.06
2023-01-08T09:16:29.147Z,99236.16
2023-01-08T09:18:57.415Z,99232.31
2023-01-08T09:21:25.210Z,99232.72
2023-01-08T09:23:54.023Z,99230.91
2023-01-08T09:26:23.173Z,99229.03
2023-01-08T09:28:50.844Z,99229.56
2023-01-08T09:31:18.626Z,99226.88
2023-01-08T09:33:48.967Z,99229.53
2023-01-08T09:36:16.813Z,99221.81
2023-01-08T09:38:45.065Z,99214.66
2023-01-08T09:41:17.650Z,99218.34
2023-01-08T09:43:49.520Z,99226.88
2023-01-08T09:46:20.680Z,99220.59
2023-01-08T09:48:49.994Z,99229.34
2023-01-08T09:51:19.782Z,99230.53
2023-01-08T09:53:51.563Z,99236.22
2023-01-08T09:56:20.000Z,99231.50
2023-01-08T09:58:51.496Z,99237.81
2023-01-08T10:01:22.922Z,99227.38
2023-01-08T10:03:55.647Z,99229.59
2023-01-08T10:06:25.243Z,99229.91
2023-01-08T10:08:53.579Z,99219.06
2023-01-08T10:11:22.577Z,99216.34
2023-01-08T10:13:54.755Z,99223.97
2023-01-08T10:16:30.414Z,99215.56
2023-01-08T10:18:59.941Z,99212.44
2023-01-08T10:21:32.951Z,99216.38
2023-01-08T10:24:00.742Z,99212.25
2023-01-08T10:26:31.368Z,99220.38
2023-01-08T10:29:13.444Z,99222.75
2023-01-08T10:31:48.215Z,99209.28
2023-01-08T10:34:27.778Z,99213.97
2023-01-08T10:36:57.114Z,99207.88
2023-01-08T10:39:27.908Z,99209.47
2023-01-08T10:41:59.339Z,99202.59
2023-01-08T10:44:28.468Z,99210.44
2023-01-08T10:46:59.022Z,99208.81
2023-01-08T10:49:33.379Z,99196.78
2023-01-08T10:52:01.495Z,99193.59
2023-01-08T10:54:37.273Z,99185.47
2023-01-08T10:57:21.977Z,99183.84
2023-01-08T10:59:51.011Z,99178.84
2023-01-08T11:02:27.509Z,99177.44
2023-01-08T11:04:55.208Z,99181.25
2023-01-08T11:07:26.782Z,99179.84
2023-01-08T11:09:55.399Z,99186.13
2023-01-08T11:12:35.739Z,99180.03
2023-01-08T11:15:07.130Z,99180.59
2023-01-08T11:17:35.628Z,99173.03
2023-01-08T11:20:19.872Z,99177.50
2023-01-08T11:22:47.634Z,99174.22
2023-01-08T11:25:23.984Z,99167.13
2023-01-08T11:27:53.323Z,99171.41
2023-01-08T11:30:27.232Z,99165.31
2023-01-08T11:33:01.487Z,99172.59
2023-01-08T11:35:32.734Z,99164.88
2023-01-08T11:38:02.409Z,99160.63
2023-01-08T11:40:39.008Z,99157.34
2023-01-08T11:43:13.461Z,99152.63
2023-01-08T11:45:54.808Z,99146.97
2023-01-08T11:48:38.815Z,99144.78
2023-01-08T11:51:27.877Z,99130.59
2023-01-08T11:54:03.383Z,99129.38
2023-01-08T11:56:44.654Z,99118.63
2023-01-08T11:59:19.680Z,99119.47
2023-01-08T12:02:00.490Z,99110.53
2023-01-08T12:04:52.353Z,99108.53
2023-01-08T12:07:23.105Z,99103.03
2023-01-08T12:09:59.808Z,99099.03
2023-01-08T12:12:42.203Z,99093.94
2023-01-08T12:15:20.512Z,99090.16
2023-01-08T12:18:16.376Z,99087.72
2023-01-08T12:20:49.732Z,99076.78
2023-01-08T12:23:29.422Z,99072.94
2023-01-08T12:26:15.586Z,99067.41
2023-01-08T12:29:28.016Z,99061.50
2023-01-08T12:32:10.312Z,99057.03
2023-01-08T12:34:50.548Z,99055.66
2023-01-08T12:37:24.421Z,99054.25
2023-01-08T12:40:00.973Z,99051.06
2023-01-08T12:42:30.503Z,99048.22
2023-01-08T12:45:01.919Z,99040.91
2023-01-08T12:47:33.767Z,99049.47
2023-01-08T12:50:28.256Z,99041.38
2023-01-08T12:53:03.167Z,99043.19
2023-01-08T12:55:39.757Z,99039.72
2023-01-08T12:58:12.131Z,99038.91
2023-01-08T13:00:44.436Z,99032.22
2023-01-08T13:03:16.132Z,99028.38
2023-01-08T13:05:45.388Z,99022.47
2023-01-08T13:08:28.514Z,99018.66
2023-01-08T13:10:56.752Z,99013.41
2023-01-08T13:13:28.105Z,99012.66
2023-01-08T13:16:07.635Z,99004.81
2023-01-08T13:18:35.827Z,99010.75
2023-01-08T13:21:06.577Z,98995.34
2023-01-08T13:23:36.411Z,98987.03
2023-01-08T13:26:06.173Z,98995.66
2023-01-08T13:28:43.709Z,98988.53
2023-01-08T13:31:27.869Z,98981.22
2023-01-08T13:33:56.500Z,98980.78
2023-01-08T13:36:27.773Z,98985.06
2023-01-08T13:39:03.756Z,98965.69
2023-01-08T13:41:33.556Z,98957.13
2023-01-08T13:44:05.087Z,98956.69
2023-01-08T13:46:35.524Z,98957.72
2023-01-08T13:49:06.122Z,98954.84
2023-01-08T13:51:42.439Z,98951.63
2023-01-08T13:54:22.945Z,98951.19
2023-01-08T13:56:55.862Z,98944.88
2023-01-08T13:59:35.400Z,98945.72
2023-01-08T14:02:03.239Z,98946.09
2023-01-08T14:04:31.167Z,98942.44
2023-01-08T14:07:16.100Z,98944.06
2023-01-08T14:09:43.833Z,98939.53
2023-01-08T14:12:15.264Z,98937.72
2023-01-08T14:14:48.183Z,98931.56
2023-01-08T14:17:17.694Z,98939.50
2023-01-08T14:19:46.004Z,98928.78
2023-01-08T14:22:20.390Z,98927.19
2023-01-08T14:24:55.867Z,98919.06
2023-01-08T14:27:26.370Z,98905.69
2023-01-08T14:29:54.294Z,98906.50
2023-01-08T14:32:23.756Z,98903.69
2023-01-08T14:34:54.524Z,98912.81
2023-01-08T14:37:23.692Z,98905.09
2023-01-08T14:39:54.763Z,98902.25
2023-01-08T14:42:47.405Z,98904.03
2023-01-08T14:45:20.016Z,98901.19
2023-01-08T14:47:50.184Z,98903.81
2023-01-08T14:50:21.143Z,98906.03
2023-01-08T14:52:51.526Z,98906.03
2023-01-08T14:55:21.023Z,98904.00
2023-01-08T14:57:50.983Z,98896.47
2023-01-08T15:00:21.978Z,98910.91
2023-01-08T15:02:50.478Z,98912.09
2023-01-08T15:05:21.093Z,98897.44
2023-01-08T15:08:00.434Z,98904.19
2023-01-08T15:10:37.495Z,98914.53
2023-01-08T15:13:07.741Z,98906.00
2023-01-08T15:15:42.679Z,98908.88
2023-01-08T15:18:13.011Z,98910.50
2023-01-08T15:20:41.922Z,98918.22
2023-01-08T15:23:26.025Z,98917.00
2023-01-08T15:25:56.608Z,98925.72
2023-01-08T15:28:25.172Z,98906.38
2023-01-08T15:30:53.131Z,98916.94
2023-01-08T15:33:22.941Z,98912.72
2023-01-08T15:35:51.663Z,98914.91
2023-01-08T15:38:23.552Z,98913.88
2023-01-08T15:40:53.183Z,98910.16
2023-01-08T15:43:19.918Z,98910.75
2023-01-08T15:45:49.566Z,98900.13
2023-01-08T15:48:17.479Z,98904.31
2023-01-08T15:50:46.146Z,98904.44
2023-01-08T15:53:18.316Z,98898.44
2023-01-08T15:55:48.008Z,98899.34
2023-01-08T15:58:16.943Z,98903.69
2023-01-08T16:00:46.132Z,98894.88
2023-01-08T16:03:15.140Z,98905.94
2023-01-08T16:05:43.255Z,98911.72
2023-01-08T16:08:11.788Z,98906.97
2023-01-08T16:10:39.440Z,98907.25
2023-01-08T16:13:11.636Z,98920.72
2023-01-08T16:15:39.879Z,98901.59
2023-01-08T16:18:07.524Z,98908.59
2023-01-08T16:20:35.196Z,98914.63
2023-01-08T16:23:02.905Z,98906.66
2023-01-08T16:25:31.408Z,98916.72
2023-01-08T16:27:59.195Z,98923.19
2023-01-08T16:30:28.208Z,98923.09
2023-01-08T16:32:55.901Z,98919.38
2023-01-08T16:35:24.420Z,98910.41
2023-01-08T16:37:52.099Z,98916.22
2023-01-08T16:40:19.959Z,98920.41
2023-01-08T16:42:47.681Z,98917.31
2023-01-08T16:45:15.317Z,98917.88
2023-01-08T16:47:44.339Z,98906.25
2023-01-08T16:50:14.246Z,98907.63
2023-01-08T16:52:42.011Z,98905.56
2023-01-08T16:55:11.521Z,98900.47
2023-01-08T16:57:39.188Z,98896.03
2023-01-08T17:00:08.895Z,98889.78
2023-01-08T17:02:36.550Z,98898.56
2023-01-08T17:05:06.406Z,98890.38
2023-01-08T17:07:35.185Z,98884.50
2023-01-08T17:10:02.972Z,98890.25
2023-01-08T17:12:31.054Z,98889.16
2023-01-08T17:14:58.758Z,98883.78
2023-01-08T17:17:26.448Z,98886.94
2023-01-08T17:19:54.191Z,98890.06
2023-01-08T17:22:23.224Z,98884.31
2023-01-08T17:24:50.908Z,98880.19
2023-01-08T17:27:18.686Z,98882.50
2023-01-08T17:29:46.366Z,98877.09
2023-01-08T17:32:14.253Z,98882.78
2023-01-08T17:34:41.936Z,98882.97
2023-01-08T17:37:09.654Z,98879.09
2023-01-08T17:39:38.720Z,98878.22
2023-01-08T17:42:23.737Z,98878.34
2023-01-08T17:44:51.762Z,98883.13
2023-01-08T17:47:20.583Z,98875.34
2023-01-08T17:49:50.083Z,98881.75
2023-01-08T17:52:17.802Z,98871.69
2023-01-08T17:54:48.531Z,98870.16
2023-01-08T17:57:16.799Z,98874.75
2023-01-08T17:59:44.604Z,98875.28
2023-01-08T18:02:15.812Z,98867.56
2023-01-08T18:04:45.332Z,98866.22
2023-01-08T18:07:13.163Z,98863.66
2023-01-08T18:09:40.940Z,98864.19
2023-01-08T18:12:10.073Z,98853.50
2023-01-08T18:14:39.712Z,98857.47
2023-01-08T18:17:07.434Z,98850.09
2023-01-08T18:19:35.117Z,98848.94
2023-01-08T18:22:02.882Z,98844.75
2023-01-08T18:24:30.577Z,98838.66
2023-01-08T18:26:59.008Z,98842.66
2023-01-08T18:29:28.107Z,98836.53
2023-01-08T18:31:55.827Z,98834.03
2023-01-08T18:34:23.575Z,98834.16
2023-01-08T18:36:51.278Z,98827.19
2023-01-08T18:39:19.074Z,98835.66
2023-01-08T18:42:04.141Z,98831.41
2023-01-08T18:44:33.262Z,98823.69
2023-01-08T18:47:00.939Z,98822.44
2023-01-08T18:49:28.606Z,98822.38
2023-01-08T18:51:56.326Z,98823.94
2023-01-08T18:54:23.996Z,98824.06
2023-01-08T18:56:52.081Z,98825.59
2023-01-08T18:59:19.845Z,98823.53
2023-01-08T19:01:48.962Z,98816.19
2023-01-08T19:04:19.021Z,98817.38
2023-01-08T19:06:47.037Z,98823.00
2023-01-08T19:09:15.904Z,98819.94
2023-01-08T19:11:43.590Z,98815.03
2023-01-08T19:14:13.244Z,98810.34
2023-01-08T19:16:43.167Z,98810.91
2023-01-08T19:19:12.292Z,98813.25
2023-01-08T19:21:40.043Z,98810.19
2023-01-08T19:24:08.684Z,98808.09
2023-01-08T19:26:36.529Z,98798.78
2023-01-08T19:29:05.065Z,98790.41
2023-01-08T19:31:33.049Z,98782.09
2023-01-08T19:34:01.008Z,98783.09
2023-01-08T19:36:30.259Z,98783.63
2023-01-08T19:38:58.036Z,98773.31
2023-01-08T19:41:43.435Z,98764.63
2023-01-08T19:44:11.336Z,98764.81
2023-01-08T19:46:39.031Z,98758.72
2023-01-08T19:49:06.893Z,98754.66
2023-01-08T19:51:35.959Z,98756.28
2023-01-08T19:54:03.691Z,98751.03
2023-01-08T19:56:31.775Z,98751.03
2023-01-08T19:59:00.016Z,98754.47
2023-01-08T20:01:29.168Z,98743.31
2023-01-08T20:03:57.524Z,98734.81
2023-01-08T20:06:26.778Z,98737.63
2023-01-08T20:08:58.880Z,98741.44
2023-01-08T20:11:27.477Z,98734.94
2023-01-08T20:13:56.482Z,98722.31
2023-01-08T20:16:24.785Z,98734.03
2023-01-08T20:18:55.874Z,98728.78
2023-01-08T20:21:24.090Z,98721.25
2023-01-08T20:23:59.119Z,98723.22
2023-01-08T20:26:28.324Z,98709.50
2023-01-08T20:28:57.752Z,98706.41
2023-01-08T20:31:29.392Z,98701.31
2023-01-08T20:33:57.494Z,98713.03
2023-01-08T20:36:28.441Z,98711.56
2023-01-08T20:39:01.422Z,98706.31
2023-01-08T20:41:30.157Z,98716.47
2023-01-08T20:43:58.111Z,98717.38
2023-01-08T20:46:28.457Z,98707.38
2023-01-08T20:48:56.953Z,98696.41
2023-01-08T20:51:24.658Z,98697.00
2023-01-08T20:53:52.550Z,98700.28
2023-01-08T20:56:21.718Z,98698.47
2023-01-08T20:58:50.394Z,98694.03
2023-01-08T21:01:20.194Z,98690.16
2023-01-08T21:03:49.164Z,98680.66
2023-01-08T21:06:18.511Z,98680.81
2023-01-08T21:08:48.446Z,98680.00
2023-01-08T21:11:17.318Z,98680.19
2023-01-08T21:13:46.793Z,98677.13
2023-01-08T21:16:16.035Z,98677.31
2023-01-08T21:18:47.328Z,98672.41
2023-01-08T21:21:17.722Z,98667.72
2023-01-08T21:23:46.832Z,98668.06
2023-01-08T21:26:16.212Z,98667.63
2023-01-08T21:28:46.859Z,98666.19
2023-01-08T21:31:17.525Z,98653.63
2023-01-08T21:33:48.563Z,98654.78
2023-01-08T21:36:19.197Z,98649.34
2023-01-08T21:38:47.808Z,98638.84
2023-01-08T21:41:37.672Z,98636.13
2023-01-08T21:44:30.085Z,98623.88
2023-01-08T21:46:58.994Z,98622.13
2023-01-08T21:49:26.787Z,98616.94
2023-01-08T21:52:12.200Z,98613.75
2023-01-08T21:54:40.203Z,98603.94
2023-01-08T21:57:08.711Z,98601.44
2023-01-08T21:59:38.004Z,98593.69
2023-01-08T22:02:07.061Z,98586.09
2023-01-08T22:04:34.777Z,98587.81
2023-01-08T22:07:02.488Z,98578.41
2023-01-08T22:09:30.163Z,98582.94
2023-01-08T22:11:57.839Z,98564.97
2023-01-08T22:14:25.538Z,98557.72
2023-01-08T22:16:54.574Z,98552.31
2023-01-08T22:19:22.272Z,98546.06
2023-01-08T22:21:50.015Z,98534.56
2023-01-08T22:24:17.827Z,98529.53
2023-01-08T22:26:45.466Z,98535.19
2023-01-08T22:29:13.129Z,98531.38
2023-01-08T22:31:40.970Z,98527.94
2023-01-08T22:34:14.095Z,98528.94
2023-01-08T22:36:41.843Z,98524.25
2023-01-08T22:39:09.580Z,98524.47
2023-01-08T22:41:37.322Z,98516.13
2023-01-08T22:44:05.563Z,98511.28
2023-01-08T22:46:33.307Z,98512.88
2023-01-08T22:49:01.054Z,98510.22
2023-01-08T22:51:30.366Z,98502.34
2023-01-08T22:54:00.713Z,98502.56
2023-01-08T22:56:28.599Z,98505.38
2023-01-08T22:58:56.292Z,98502.13
2023-01-08T23:01:27.120Z,98495.84
2023-01-08T23:03:56.217Z,98495.41
2023-01-08T23:06:25.802Z,98486.50
2023-01-08T23:08:56.474Z,98489.75
2023-01-08T23:11:24.611Z,98479.03
2023-01-08T23:13:52.718Z,98479.44
2023-01-08T23:16:24.465Z,98477.25
2023-01-08T23:18:52.617Z,98469.53
2023-01-08T23:21:22.883Z,98470.81
2023-01-08T23:23:52.238Z,98467.19
2023-01-08T23:26:23.519Z,98473.84
2023-01-08T23:28:52.414Z,98462.31
2023-01-08T23:31:21.964Z,98462.56
2023-01-08T23:33:49.887Z,98449.19
2023-01-08T23:36:20.914Z,98447.75
2023-01-08T23:38:50.330Z,98459.31
2023-01-08T23:41:18.672Z,98451.19
2023-01-08T23:43:48.805Z,98445.75
2023-01-08T23:46:17.110Z,98442.28
2023-01-08T23:48:44.962Z,98440.47
2023-01-08T23:51:12.699Z,98438.84
2023-01-08T23:53:40.498Z,98443.69
2023-01-08T23:56:08.732Z,98427.69
2023-01-08T23:58:37.064Z,98424.47
